sensor_id;sensor_type;location;lat;lon;timestamp;P1;durP1;ratioP1;P2;durP2;ratioP2
74415;SDS011;62850;42.428;25.618;2023-05-10T00:02:23;8.40;;;4.20;;
74415;SDS011;62850;42.428;25.618;2023-05-10T00:04:49;9.65;;;4.10;;
74415;SDS011;62850;42.428;25.618;2023-05-10T00:07:15;9.70;;;4.00;;
74415;SDS011;62850;42.428;25.618;2023-05-10T00:09:42;11.00;;;4.20;;
74415;SDS011;62850;42.428;25.618;2023-05-10T00:12:11;9.23;;;4.15;;
74415;SDS011;62850;42.428;25.618;2023-05-10T00:14:36;7.85;;;3.90;;
74415;SDS011;62850;42.428;25.618;2023-05-10T00:17:02;8.27;;;4.10;;
74415;SDS011;62850;42.428;25.618;2023-05-10T00:19:27;8.18;;;4.00;;
74415;SDS011;62850;42.428;25.618;2023-05-10T00:21:53;8.10;;;4.25;;
74415;SDS011;62850;42.428;25.618;2023-05-10T00:24:18;6.97;;;4.05;;
74415;SDS011;62850;42.428;25.618;2023-05-10T00:26:44;7.72;;;4.07;;
74415;SDS011;62850;42.428;25.618;2023-05-10T00:29:09;7.00;;;4.28;;
74415;SDS011;62850;42.428;25.618;2023-05-10T00:31:35;6.80;;;3.88;;
74415;SDS011;62850;42.428;25.618;2023-05-10T00:34:00;6.95;;;3.53;;
74415;SDS011;62850;42.428;25.618;2023-05-10T00:36:26;12.07;;;4.03;;
74415;SDS011;62850;42.428;25.618;2023-05-10T00:38:52;7.85;;;3.80;;
74415;SDS011;62850;42.428;25.618;2023-05-10T00:41:18;7.35;;;4.03;;
74415;SDS011;62850;42.428;25.618;2023-05-10T00:43:43;8.05;;;4.18;;
74415;SDS011;62850;42.428;25.618;2023-05-10T00:46:09;8.88;;;4.63;;
74415;SDS011;62850;42.428;25.618;2023-05-10T00:48:34;8.13;;;4.30;;
74415;SDS011;62850;42.428;25.618;2023-05-10T00:51:00;8.43;;;4.30;;
74415;SDS011;62850;42.428;25.618;2023-05-10T00:53:26;8.05;;;4.25;;
74415;SDS011;62850;42.428;25.618;2023-05-10T00:55:52;11.00;;;4.20;;
74415;SDS011;62850;42.428;25.618;2023-05-10T00:58:18;7.13;;;3.60;;
74415;SDS011;62850;42.428;25.618;2023-05-10T01:00:43;6.93;;;3.92;;
74415;SDS011;62850;42.428;25.618;2023-05-10T01:03:11;6.82;;;4.05;;
74415;SDS011;62850;42.428;25.618;2023-05-10T01:05:37;7.75;;;3.97;;
74415;SDS011;62850;42.428;25.618;2023-05-10T01:08:03;8.57;;;4.95;;
74415;SDS011;62850;42.428;25.618;2023-05-10T01:10:28;9.00;;;4.18;;
74415;SDS011;62850;42.428;25.618;2023-05-10T01:12:54;7.53;;;4.10;;
74415;SDS011;62850;42.428;25.618;2023-05-10T01:15:20;8.65;;;3.88;;
74415;SDS011;62850;42.428;25.618;2023-05-10T01:17:47;7.68;;;4.55;;
74415;SDS011;62850;42.428;25.618;2023-05-10T01:20:13;8.10;;;4.60;;
74415;SDS011;62850;42.428;25.618;2023-05-10T01:33:28;7.68;;;3.85;;
74415;SDS011;62850;42.428;25.618;2023-05-10T01:42:10;7.60;;;4.00;;
74415;SDS011;62850;42.428;25.618;2023-05-10T01:45:23;10.13;;;4.70;;
74415;SDS011;62850;42.428;25.618;2023-05-10T01:47:43;8.20;;;4.30;;
74415;SDS011;62850;42.428;25.618;2023-05-10T01:50:10;7.80;;;4.53;;
74415;SDS011;62850;42.428;25.618;2023-05-10T01:52:47;9.85;;;3.90;;
74415;SDS011;62850;42.428;25.618;2023-05-10T01:55:16;11.98;;;4.50;;
74415;SDS011;62850;42.428;25.618;2023-05-10T01:57:46;9.00;;;4.20;;
74415;SDS011;62850;42.428;25.618;2023-05-10T02:00:13;7.90;;;4.15;;
74415;SDS011;62850;42.428;25.618;2023-05-10T02:02:42;8.98;;;4.80;;
74415;SDS011;62850;42.428;25.618;2023-05-10T02:05:11;7.82;;;4.65;;
74415;SDS011;62850;42.428;25.618;2023-05-10T02:07:38;6.72;;;4.13;;
74415;SDS011;62850;42.428;25.618;2023-05-10T02:10:05;9.07;;;4.43;;
74415;SDS011;62850;42.428;25.618;2023-05-10T02:12:35;6.82;;;4.30;;
74415;SDS011;62850;42.428;25.618;2023-05-10T02:15:04;6.57;;;3.92;;
74415;SDS011;62850;42.428;25.618;2023-05-10T02:17:32;9.80;;;4.50;;
74415;SDS011;62850;42.428;25.618;2023-05-10T02:19:59;7.00;;;3.67;;
74415;SDS011;62850;42.428;25.618;2023-05-10T02:22:27;9.80;;;4.07;;
74415;SDS011;62850;42.428;25.618;2023-05-10T02:24:57;6.78;;;3.90;;
74415;SDS011;62850;42.428;25.618;2023-05-10T02:27:24;9.13;;;4.80;;
74415;SDS011;62850;42.428;25.618;2023-05-10T02:29:52;8.95;;;4.00;;
74415;SDS011;62850;42.428;25.618;2023-05-10T02:32:18;8.98;;;4.38;;
74415;SDS011;62850;42.428;25.618;2023-05-10T02:34:46;8.68;;;4.45;;
74415;SDS011;62850;42.428;25.618;2023-05-10T02:37:17;8.43;;;3.78;;
74415;SDS011;62850;42.428;25.618;2023-05-10T02:39:44;6.97;;;3.92;;
74415;SDS011;62850;42.428;25.618;2023-05-10T02:42:13;7.60;;;4.28;;
74415;SDS011;62850;42.428;25.618;2023-05-10T02:47:10;7.38;;;4.18;;
74415;SDS011;62850;42.428;25.618;2023-05-10T02:49:35;6.72;;;3.78;;
74415;SDS011;62850;42.428;25.618;2023-05-10T02:52:01;13.38;;;4.28;;
74415;SDS011;62850;42.428;25.618;2023-05-10T02:54:32;7.72;;;3.85;;
74415;SDS011;62850;42.428;25.618;2023-05-10T02:59:29;8.15;;;4.00;;
74415;SDS011;62850;42.428;25.618;2023-05-10T03:01:55;8.20;;;4.22;;
74415;SDS011;62850;42.428;25.618;2023-05-10T03:04:21;6.55;;;3.63;;
74415;SDS011;62850;42.428;25.618;2023-05-10T03:06:46;9.13;;;4.20;;
74415;SDS011;62850;42.428;25.618;2023-05-10T03:09:12;7.18;;;3.75;;
74415;SDS011;62850;42.428;25.618;2023-05-10T03:14:23;7.07;;;3.95;;
74415;SDS011;62850;42.428;25.618;2023-05-10T03:20:08;7.63;;;3.70;;
74415;SDS011;62850;42.428;25.618;2023-05-10T03:22:47;9.52;;;3.90;;
74415;SDS011;62850;42.428;25.618;2023-05-10T03:25:21;9.13;;;3.72;;
74415;SDS011;62850;42.428;25.618;2023-05-10T03:27:47;6.57;;;3.80;;
74415;SDS011;62850;42.428;25.618;2023-05-10T03:30:14;6.97;;;4.03;;
74415;SDS011;62850;42.428;25.618;2023-05-10T03:32:40;8.18;;;4.32;;
74415;SDS011;62850;42.428;25.618;2023-05-10T03:35:09;10.25;;;4.47;;
74415;SDS011;62850;42.428;25.618;2023-05-10T03:37:35;6.70;;;3.92;;
74415;SDS011;62850;42.428;25.618;2023-05-10T03:40:03;7.00;;;3.67;;
74415;SDS011;62850;42.428;25.618;2023-05-10T03:42:29;9.82;;;3.80;;
74415;SDS011;62850;42.428;25.618;2023-05-10T03:44:54;7.53;;;4.10;;
74415;SDS011;62850;42.428;25.618;2023-05-10T03:47:20;8.73;;;4.10;;
74415;SDS011;62850;42.428;25.618;2023-05-10T03:49:46;8.90;;;3.70;;
74415;SDS011;62850;42.428;25.618;2023-05-10T03:52:11;7.15;;;4.22;;
74415;SDS011;62850;42.428;25.618;2023-05-10T03:54:37;6.25;;;3.75;;
74415;SDS011;62850;42.428;25.618;2023-05-10T03:57:02;6.78;;;3.85;;
74415;SDS011;62850;42.428;25.618;2023-05-10T03:59:28;8.02;;;4.03;;
74415;SDS011;62850;42.428;25.618;2023-05-10T04:01:53;7.43;;;3.75;;
74415;SDS011;62850;42.428;25.618;2023-05-10T04:04:19;8.77;;;4.15;;
74415;SDS011;62850;42.428;25.618;2023-05-10T04:06:45;11.25;;;3.92;;
74415;SDS011;62850;42.428;25.618;2023-05-10T04:09:11;6.78;;;3.80;;
74415;SDS011;62850;42.428;25.618;2023-05-10T04:11:37;10.55;;;3.92;;
74415;SDS011;62850;42.428;25.618;2023-05-10T04:14:02;8.43;;;3.58;;
74415;SDS011;62850;42.428;25.618;2023-05-10T04:16:29;8.10;;;3.88;;
74415;SDS011;62850;42.428;25.618;2023-05-10T04:18:54;10.60;;;3.53;;
74415;SDS011;62850;42.428;25.618;2023-05-10T04:21:21;12.23;;;4.32;;
74415;SDS011;62850;42.428;25.618;2023-05-10T04:23:46;7.43;;;3.75;;
74415;SDS011;62850;42.428;25.618;2023-05-10T04:26:12;6.18;;;3.45;;
74415;SDS011;62850;42.428;25.618;2023-05-10T04:28:37;6.22;;;3.92;;
74415;SDS011;62850;42.428;25.618;2023-05-10T04:31:04;7.47;;;3.75;;
74415;SDS011;62850;42.428;25.618;2023-05-10T04:33:31;8.07;;;3.50;;
74415;SDS011;62850;42.428;25.618;2023-05-10T04:35:56;8.65;;;3.97;;
74415;SDS011;62850;42.428;25.618;2023-05-10T04:38:22;6.75;;;3.60;;
74415;SDS011;62850;42.428;25.618;2023-05-10T04:40:48;8.52;;;3.70;;
74415;SDS011;62850;42.428;25.618;2023-05-10T04:43:13;8.88;;;3.90;;
74415;SDS011;62850;42.428;25.618;2023-05-10T04:45:38;9.73;;;3.58;;
74415;SDS011;62850;42.428;25.618;2023-05-10T04:48:04;8.50;;;3.28;;
74415;SDS011;62850;42.428;25.618;2023-05-10T04:50:30;6.80;;;3.60;;
74415;SDS011;62850;42.428;25.618;2023-05-10T04:52:55;8.15;;;3.60;;
74415;SDS011;62850;42.428;25.618;2023-05-10T04:55:21;8.05;;;4.28;;
74415;SDS011;62850;42.428;25.618;2023-05-10T04:57:46;8.68;;;3.40;;
74415;SDS011;62850;42.428;25.618;2023-05-10T05:00:12;6.55;;;3.97;;
74415;SDS011;62850;42.428;25.618;2023-05-10T05:02:38;7.88;;;4.10;;
74415;SDS011;62850;42.428;25.618;2023-05-10T05:05:03;11.90;;;3.83;;
74415;SDS011;62850;42.428;25.618;2023-05-10T05:07:29;6.32;;;3.67;;
74415;SDS011;62850;42.428;25.618;2023-05-10T05:09:55;7.45;;;3.95;;
74415;SDS011;62850;42.428;25.618;2023-05-10T05:12:21;8.82;;;3.90;;
74415;SDS011;62850;42.428;25.618;2023-05-10T05:14:46;9.65;;;3.40;;
74415;SDS011;62850;42.428;25.618;2023-05-10T05:17:12;8.27;;;3.60;;
74415;SDS011;62850;42.428;25.618;2023-05-10T05:19:38;7.75;;;3.88;;
74415;SDS011;62850;42.428;25.618;2023-05-10T05:22:06;7.65;;;3.70;;
74415;SDS011;62850;42.428;25.618;2023-05-10T05:24:36;10.77;;;4.05;;
74415;SDS011;62850;42.428;25.618;2023-05-10T05:27:05;6.15;;;3.47;;
74415;SDS011;62850;42.428;25.618;2023-05-10T05:29:31;10.23;;;3.72;;
74415;SDS011;62850;42.428;25.618;2023-05-10T05:31:56;7.15;;;3.40;;
74415;SDS011;62850;42.428;25.618;2023-05-10T05:34:22;8.82;;;3.60;;
74415;SDS011;62850;42.428;25.618;2023-05-10T05:36:47;8.48;;;3.90;;
74415;SDS011;62850;42.428;25.618;2023-05-10T05:39:13;7.13;;;4.05;;
74415;SDS011;62850;42.428;25.618;2023-05-10T05:41:38;7.60;;;4.00;;
74415;SDS011;62850;42.428;25.618;2023-05-10T05:44:04;8.48;;;4.30;;
74415;SDS011;62850;42.428;25.618;2023-05-10T05:46:30;7.32;;;3.88;;
74415;SDS011;62850;42.428;25.618;2023-05-10T05:48:55;10.95;;;5.38;;
74415;SDS011;62850;42.428;25.618;2023-05-10T05:51:21;8.27;;;3.78;;
74415;SDS011;62850;42.428;25.618;2023-05-10T05:53:47;8.73;;;4.35;;
74415;SDS011;62850;42.428;25.618;2023-05-10T05:56:12;7.30;;;3.53;;
74415;SDS011;62850;42.428;25.618;2023-05-10T05:58:38;7.35;;;3.50;;
74415;SDS011;62850;42.428;25.618;2023-05-10T06:01:03;7.00;;;3.63;;
74415;SDS011;62850;42.428;25.618;2023-05-10T06:03:29;6.78;;;3.85;;
74415;SDS011;62850;42.428;25.618;2023-05-10T06:05:54;6.57;;;3.67;;
74415;SDS011;62850;42.428;25.618;2023-05-10T06:08:20;7.57;;;3.28;;
74415;SDS011;62850;42.428;25.618;2023-05-10T06:10:45;9.73;;;3.72;;
74415;SDS011;62850;42.428;25.618;2023-05-10T06:13:11;7.78;;;4.00;;
74415;SDS011;62850;42.428;25.618;2023-05-10T06:15:37;14.40;;;3.85;;
74415;SDS011;62850;42.428;25.618;2023-05-10T06:18:02;9.00;;;3.97;;
74415;SDS011;62850;42.428;25.618;2023-05-10T06:20:28;8.18;;;3.53;;
74415;SDS011;62850;42.428;25.618;2023-05-10T06:22:56;8.95;;;4.57;;
74415;SDS011;62850;42.428;25.618;2023-05-10T06:25:22;7.75;;;4.28;;
74415;SDS011;62850;42.428;25.618;2023-05-10T06:27:48;10.45;;;4.00;;
74415;SDS011;62850;42.428;25.618;2023-05-10T06:30:13;10.05;;;3.85;;
74415;SDS011;62850;42.428;25.618;2023-05-10T06:32:39;7.15;;;3.80;;
74415;SDS011;62850;42.428;25.618;2023-05-10T06:35:05;6.40;;;3.20;;
74415;SDS011;62850;42.428;25.618;2023-05-10T06:37:31;6.60;;;3.08;;
74415;SDS011;62850;42.428;25.618;2023-05-10T06:39:57;8.75;;;3.10;;
74415;SDS011;62850;42.428;25.618;2023-05-10T06:42:22;6.38;;;3.05;;
74415;SDS011;62850;42.428;25.618;2023-05-10T06:44:50;5.40;;;2.78;;
74415;SDS011;62850;42.428;25.618;2023-05-10T06:47:15;4.88;;;2.72;;
74415;SDS011;62850;42.428;25.618;2023-05-10T06:49:42;6.00;;;3.00;;
74415;SDS011;62850;42.428;25.618;2023-05-10T06:52:07;6.93;;;2.53;;
74415;SDS011;62850;42.428;25.618;2023-05-10T06:54:33;4.82;;;3.03;;
74415;SDS011;62850;42.428;25.618;2023-05-10T06:56:58;5.32;;;2.63;;
74415;SDS011;62850;42.428;25.618;2023-05-10T06:59:24;4.80;;;2.47;;
74415;SDS011;62850;42.428;25.618;2023-05-10T07:01:50;5.47;;;2.78;;
74415;SDS011;62850;42.428;25.618;2023-05-10T07:04:16;5.78;;;2.53;;
74415;SDS011;62850;42.428;25.618;2023-05-10T07:06:42;5.10;;;2.63;;
74415;SDS011;62850;42.428;25.618;2023-05-10T07:09:08;4.53;;;2.50;;
74415;SDS011;62850;42.428;25.618;2023-05-10T07:11:33;6.45;;;2.53;;
74415;SDS011;62850;42.428;25.618;2023-05-10T07:13:59;5.50;;;2.38;;
74415;SDS011;62850;42.428;25.618;2023-05-10T07:16:25;4.53;;;2.30;;
74415;SDS011;62850;42.428;25.618;2023-05-10T07:18:50;4.93;;;2.50;;
74415;SDS011;62850;42.428;25.618;2023-05-10T07:21:18;5.25;;;2.35;;
74415;SDS011;62850;42.428;25.618;2023-05-10T07:23:43;6.28;;;2.42;;
74415;SDS011;62850;42.428;25.618;2023-05-10T07:26:09;8.68;;;3.00;;
74415;SDS011;62850;42.428;25.618;2023-05-10T07:28:34;6.95;;;2.20;;
74415;SDS011;62850;42.428;25.618;2023-05-10T07:31:02;9.52;;;2.42;;
74415;SDS011;62850;42.428;25.618;2023-05-10T07:33:28;5.93;;;2.70;;
74415;SDS011;62850;42.428;25.618;2023-05-10T07:35:53;7.38;;;2.92;;
74415;SDS011;62850;42.428;25.618;2023-05-10T07:38:19;5.57;;;2.50;;
74415;SDS011;62850;42.428;25.618;2023-05-10T07:40:44;7.18;;;2.15;;
74415;SDS011;62850;42.428;25.618;2023-05-10T07:43:10;7.88;;;2.70;;
74415;SDS011;62850;42.428;25.618;2023-05-10T07:45:35;5.82;;;2.38;;
74415;SDS011;62850;42.428;25.618;2023-05-10T07:48:01;6.45;;;3.05;;
74415;SDS011;62850;42.428;25.618;2023-05-10T07:50:26;6.28;;;2.85;;
74415;SDS011;62850;42.428;25.618;2023-05-10T07:52:52;7.57;;;3.47;;
74415;SDS011;62850;42.428;25.618;2023-05-10T07:55:18;7.63;;;3.15;;
74415;SDS011;62850;42.428;25.618;2023-05-10T07:57:44;5.60;;;2.90;;
74415;SDS011;62850;42.428;25.618;2023-05-10T08:00:12;9.05;;;3.05;;
74415;SDS011;62850;42.428;25.618;2023-05-10T08:02:38;6.50;;;2.50;;
74415;SDS011;62850;42.428;25.618;2023-05-10T08:05:04;4.80;;;2.63;;
74415;SDS011;62850;42.428;25.618;2023-05-10T08:07:30;3.70;;;2.15;;
74415;SDS011;62850;42.428;25.618;2023-05-10T08:09:56;7.07;;;2.40;;
74415;SDS011;62850;42.428;25.618;2023-05-10T08:12:21;4.85;;;2.50;;
74415;SDS011;62850;42.428;25.618;2023-05-10T08:14:47;6.25;;;2.72;;
74415;SDS011;62850;42.428;25.618;2023-05-10T08:17:12;9.55;;;3.00;;
74415;SDS011;62850;42.428;25.618;2023-05-10T08:19:38;7.50;;;3.13;;
74415;SDS011;62850;42.428;25.618;2023-05-10T08:22:04;8.02;;;2.90;;
74415;SDS011;62850;42.428;25.618;2023-05-10T08:24:29;7.45;;;2.78;;
74415;SDS011;62850;42.428;25.618;2023-05-10T08:26:55;4.25;;;2.70;;
74415;SDS011;62850;42.428;25.618;2023-05-10T08:29:20;4.18;;;2.78;;
74415;SDS011;62850;42.428;25.618;2023-05-10T08:31:46;8.43;;;2.80;;
74415;SDS011;62850;42.428;25.618;2023-05-10T08:34:11;6.07;;;2.60;;
74415;SDS011;62850;42.428;25.618;2023-05-10T08:36:37;3.88;;;2.50;;
74415;SDS011;62850;42.428;25.618;2023-05-10T08:39:02;6.97;;;3.13;;
74415;SDS011;62850;42.428;25.618;2023-05-10T08:41:28;4.18;;;2.33;;
74415;SDS011;62850;42.428;25.618;2023-05-10T08:43:55;5.93;;;2.50;;
74415;SDS011;62850;42.428;25.618;2023-05-10T08:46:21;6.13;;;2.70;;
74415;SDS011;62850;42.428;25.618;2023-05-10T08:48:48;4.70;;;2.70;;
74415;SDS011;62850;42.428;25.618;2023-05-10T08:51:19;4.75;;;2.50;;
74415;SDS011;62850;42.428;25.618;2023-05-10T08:53:48;5.43;;;2.70;;
74415;SDS011;62850;42.428;25.618;2023-05-10T08:56:15;6.35;;;2.53;;
74415;SDS011;62850;42.428;25.618;2023-05-10T08:58:41;5.95;;;3.90;;
74415;SDS011;62850;42.428;25.618;2023-05-10T09:01:06;5.28;;;2.50;;
74415;SDS011;62850;42.428;25.618;2023-05-10T09:03:33;5.07;;;2.90;;
74415;SDS011;62850;42.428;25.618;2023-05-10T09:06:00;4.68;;;3.00;;
74415;SDS011;62850;42.428;25.618;2023-05-10T09:08:26;4.50;;;2.80;;
74415;SDS011;62850;42.428;25.618;2023-05-10T09:10:52;5.50;;;2.80;;
74415;SDS011;62850;42.428;25.618;2023-05-10T09:13:18;5.88;;;2.90;;
74415;SDS011;62850;42.428;25.618;2023-05-10T09:15:44;5.63;;;2.75;;
74415;SDS011;62850;42.428;25.618;2023-05-10T09:18:10;4.75;;;2.90;;
74415;SDS011;62850;42.428;25.618;2023-05-10T09:20:36;4.70;;;2.50;;
74415;SDS011;62850;42.428;25.618;2023-05-10T09:23:01;6.78;;;2.80;;
74415;SDS011;62850;42.428;25.618;2023-05-10T09:25:27;9.88;;;3.30;;
74415;SDS011;62850;42.428;25.618;2023-05-10T09:27:53;6.05;;;2.33;;
74415;SDS011;62850;42.428;25.618;2023-05-10T09:30:28;8.88;;;2.80;;
74415;SDS011;62850;42.428;25.618;2023-05-10T09:32:56;7.57;;;2.50;;
74415;SDS011;62850;42.428;25.618;2023-05-10T09:35:25;6.68;;;2.50;;
74415;SDS011;62850;42.428;25.618;2023-05-10T09:37:54;4.82;;;2.42;;
74415;SDS011;62850;42.428;25.618;2023-05-10T09:40:22;4.70;;;2.35;;
74415;SDS011;62850;42.428;25.618;2023-05-10T09:42:53;5.80;;;2.90;;
74415;SDS011;62850;42.428;25.618;2023-05-10T09:45:22;6.00;;;2.78;;
74415;SDS011;62850;42.428;25.618;2023-05-10T09:47:48;6.18;;;2.50;;
74415;SDS011;62850;42.428;25.618;2023-05-10T09:50:14;7.47;;;3.67;;
74415;SDS011;62850;42.428;25.618;2023-05-10T09:52:49;7.75;;;2.90;;
74415;SDS011;62850;42.428;25.618;2023-05-10T09:58:00;5.28;;;2.90;;
74415;SDS011;62850;42.428;25.618;2023-05-10T10:00:27;5.93;;;2.80;;
74415;SDS011;62850;42.428;25.618;2023-05-10T10:02:58;16.00;;;10.25;;
74415;SDS011;62850;42.428;25.618;2023-05-10T10:05:31;7.93;;;4.80;;
74415;SDS011;62850;42.428;25.618;2023-05-10T10:07:59;6.85;;;2.72;;
74415;SDS011;62850;42.428;25.618;2023-05-10T10:10:26;6.00;;;2.50;;
74415;SDS011;62850;42.428;25.618;2023-05-10T10:12:53;7.60;;;2.58;;
74415;SDS011;62850;42.428;25.618;2023-05-10T10:15:20;6.10;;;2.42;;
74415;SDS011;62850;42.428;25.618;2023-05-10T10:17:46;7.55;;;2.70;;
74415;SDS011;62850;42.428;25.618;2023-05-10T10:20:13;4.88;;;2.45;;
74415;SDS011;62850;42.428;25.618;2023-05-10T10:22:40;5.80;;;2.58;;
74415;SDS011;62850;42.428;25.618;2023-05-10T10:25:05;6.75;;;2.55;;
74415;SDS011;62850;42.428;25.618;2023-05-10T10:35:52;6.40;;;2.38;;
74415;SDS011;62850;42.428;25.618;2023-05-10T10:38:18;6.22;;;2.75;;
74415;SDS011;62850;42.428;25.618;2023-05-10T10:40:44;6.22;;;2.65;;
74415;SDS011;62850;42.428;25.618;2023-05-10T10:43:22;5.65;;;2.33;;
74415;SDS011;62850;42.428;25.618;2023-05-10T10:48:35;5.30;;;2.30;;
74415;SDS011;62850;42.428;25.618;2023-05-10T10:51:01;4.47;;;2.15;;
74415;SDS011;62850;42.428;25.618;2023-05-10T10:53:28;4.40;;;2.20;;
74415;SDS011;62850;42.428;25.618;2023-05-10T10:56:09;3.95;;;1.95;;
74415;SDS011;62850;42.428;25.618;2023-05-10T10:58:37;5.95;;;2.22;;
74415;SDS011;62850;42.428;25.618;2023-05-10T11:04:27;4.35;;;2.38;;
74415;SDS011;62850;42.428;25.618;2023-05-10T11:06:34;4.43;;;2.35;;
74415;SDS011;62850;42.428;25.618;2023-05-10T11:11:33;4.95;;;2.55;;
74415;SDS011;62850;42.428;25.618;2023-05-10T11:14:03;4.38;;;2.28;;
74415;SDS011;62850;42.428;25.618;2023-05-10T11:16:40;4.57;;;2.38;;
74415;SDS011;62850;42.428;25.618;2023-05-10T11:19:16;4.93;;;2.05;;
74415;SDS011;62850;42.428;25.618;2023-05-10T11:24:40;4.00;;;2.20;;
74415;SDS011;62850;42.428;25.618;2023-05-10T11:27:21;5.50;;;2.28;;
74415;SDS011;62850;42.428;25.618;2023-05-10T11:29:50;6.25;;;2.55;;
74415;SDS011;62850;42.428;25.618;2023-05-10T11:32:16;6.07;;;2.45;;
74415;SDS011;62850;42.428;25.618;2023-05-10T11:34:42;5.30;;;2.10;;
74415;SDS011;62850;42.428;25.618;2023-05-10T11:39:38;5.05;;;2.17;;
74415;SDS011;62850;42.428;25.618;2023-05-10T11:42:11;6.03;;;2.30;;
74415;SDS011;62850;42.428;25.618;2023-05-10T11:44:37;7.82;;;2.05;;
74415;SDS011;62850;42.428;25.618;2023-05-10T11:47:02;4.18;;;2.60;;
74415;SDS011;62850;42.428;25.618;2023-05-10T11:49:28;5.07;;;2.08;;
74415;SDS011;62850;42.428;25.618;2023-05-10T11:52:03;7.95;;;2.15;;
74415;SDS011;62850;42.428;25.618;2023-05-10T11:54:30;5.07;;;2.28;;
74415;SDS011;62850;42.428;25.618;2023-05-10T11:56:56;6.70;;;2.25;;
74415;SDS011;62850;42.428;25.618;2023-05-10T11:59:21;5.40;;;2.20;;
74415;SDS011;62850;42.428;25.618;2023-05-10T12:01:47;4.10;;;2.00;;
74415;SDS011;62850;42.428;25.618;2023-05-10T12:04:13;5.13;;;2.10;;
74415;SDS011;62850;42.428;25.618;2023-05-10T12:06:39;4.82;;;2.08;;
74415;SDS011;62850;42.428;25.618;2023-05-10T12:09:06;5.80;;;2.15;;
74415;SDS011;62850;42.428;25.618;2023-05-10T12:11:35;4.13;;;2.10;;
74415;SDS011;62850;42.428;25.618;2023-05-10T12:14:03;5.30;;;2.63;;
74415;SDS011;62850;42.428;25.618;2023-05-10T12:16:29;10.85;;;2.35;;
74415;SDS011;62850;42.428;25.618;2023-05-10T12:18:56;5.70;;;2.17;;
74415;SDS011;62850;42.428;25.618;2023-05-10T12:21:23;4.53;;;2.10;;
74415;SDS011;62850;42.428;25.618;2023-05-10T12:23:51;6.85;;;2.60;;
74415;SDS011;62850;42.428;25.618;2023-05-10T12:26:23;5.70;;;2.50;;
74415;SDS011;62850;42.428;25.618;2023-05-10T12:28:51;4.65;;;2.20;;
74415;SDS011;62850;42.428;25.618;2023-05-10T12:31:18;3.35;;;1.88;;
74415;SDS011;62850;42.428;25.618;2023-05-10T12:33:43;5.35;;;2.00;;
74415;SDS011;62850;42.428;25.618;2023-05-10T12:36:10;4.43;;;2.03;;
74415;SDS011;62850;42.428;25.618;2023-05-10T12:38:44;4.93;;;2.22;;
74415;SDS011;62850;42.428;25.618;2023-05-10T12:41:14;4.25;;;2.15;;
74415;SDS011;62850;42.428;25.618;2023-05-10T12:43:42;3.92;;;2.10;;
74415;SDS011;62850;42.428;25.618;2023-05-10T12:46:12;5.18;;;2.20;;
74415;SDS011;62850;42.428;25.618;2023-05-10T12:48:40;4.47;;;1.90;;
74415;SDS011;62850;42.428;25.618;2023-05-10T12:51:07;3.67;;;2.00;;
74415;SDS011;62850;42.428;25.618;2023-05-10T12:53:35;5.57;;;2.20;;
74415;SDS011;62850;42.428;25.618;2023-05-10T12:56:01;5.45;;;2.38;;
74415;SDS011;62850;42.428;25.618;2023-05-10T12:58:26;5.05;;;2.25;;
74415;SDS011;62850;42.428;25.618;2023-05-10T13:00:52;5.93;;;2.60;;
74415;SDS011;62850;42.428;25.618;2023-05-10T13:03:18;4.68;;;2.30;;
74415;SDS011;62850;42.428;25.618;2023-05-10T13:05:44;8.10;;;3.13;;
74415;SDS011;62850;42.428;25.618;2023-05-10T13:08:10;4.43;;;1.85;;
74415;SDS011;62850;42.428;25.618;2023-05-10T13:10:35;4.28;;;2.00;;
74415;SDS011;62850;42.428;25.618;2023-05-10T13:13:01;3.80;;;2.40;;
74415;SDS011;62850;42.428;25.618;2023-05-10T13:15:26;7.50;;;2.78;;
74415;SDS011;62850;42.428;25.618;2023-05-10T13:17:52;4.70;;;2.35;;
74415;SDS011;62850;42.428;25.618;2023-05-10T13:20:18;5.30;;;2.50;;
74415;SDS011;62850;42.428;25.618;2023-05-10T13:22:44;4.95;;;2.47;;
74415;SDS011;62850;42.428;25.618;2023-05-10T13:25:10;5.85;;;2.80;;
74415;SDS011;62850;42.428;25.618;2023-05-10T13:27:36;3.83;;;2.10;;
74415;SDS011;62850;42.428;25.618;2023-05-10T13:30:05;6.82;;;2.08;;
74415;SDS011;62850;42.428;25.618;2023-05-10T13:32:31;5.43;;;2.10;;
74415;SDS011;62850;42.428;25.618;2023-05-10T13:34:57;4.40;;;2.00;;
74415;SDS011;62850;42.428;25.618;2023-05-10T13:37:23;5.38;;;2.10;;
74415;SDS011;62850;42.428;25.618;2023-05-10T13:39:48;4.82;;;2.25;;
74415;SDS011;62850;42.428;25.618;2023-05-10T13:42:14;4.45;;;2.22;;
74415;SDS011;62850;42.428;25.618;2023-05-10T13:44:40;3.92;;;2.05;;
74415;SDS011;62850;42.428;25.618;2023-05-10T13:47:05;4.20;;;2.40;;
74415;SDS011;62850;42.428;25.618;2023-05-10T13:49:31;4.15;;;2.55;;
74415;SDS011;62850;42.428;25.618;2023-05-10T13:51:57;9.07;;;2.75;;
74415;SDS011;62850;42.428;25.618;2023-05-10T13:54:23;8.70;;;2.60;;
74415;SDS011;62850;42.428;25.618;2023-05-10T13:56:48;8.30;;;2.63;;
74415;SDS011;62850;42.428;25.618;2023-05-10T13:59:14;4.43;;;2.10;;
74415;SDS011;62850;42.428;25.618;2023-05-10T14:01:40;3.90;;;2.15;;
74415;SDS011;62850;42.428;25.618;2023-05-10T14:04:06;4.90;;;1.85;;
74415;SDS011;62850;42.428;25.618;2023-05-10T14:06:35;5.88;;;2.30;;
74415;SDS011;62850;42.428;25.618;2023-05-10T14:09:03;4.20;;;2.22;;
74415;SDS011;62850;42.428;25.618;2023-05-10T14:11:28;5.45;;;2.25;;
74415;SDS011;62850;42.428;25.618;2023-05-10T14:13:54;6.05;;;2.15;;
74415;SDS011;62850;42.428;25.618;2023-05-10T14:16:20;4.55;;;2.20;;
74415;SDS011;62850;42.428;25.618;2023-05-10T14:18:45;4.65;;;2.42;;
74415;SDS011;62850;42.428;25.618;2023-05-10T14:21:11;7.07;;;2.50;;
74415;SDS011;62850;42.428;25.618;2023-05-10T14:23:37;3.97;;;2.13;;
74415;SDS011;62850;42.428;25.618;2023-05-10T14:26:03;5.80;;;2.40;;
74415;SDS011;62850;42.428;25.618;2023-05-10T14:28:28;4.85;;;2.70;;
74415;SDS011;62850;42.428;25.618;2023-05-10T14:30:54;5.03;;;2.33;;
74415;SDS011;62850;42.428;25.618;2023-05-10T14:33:19;5.65;;;2.25;;
74415;SDS011;62850;42.428;25.618;2023-05-10T14:35:45;4.55;;;2.20;;
74415;SDS011;62850;42.428;25.618;2023-05-10T14:38:11;4.63;;;2.90;;
74415;SDS011;62850;42.428;25.618;2023-05-10T14:40:37;4.13;;;2.50;;
74415;SDS011;62850;42.428;25.618;2023-05-10T14:43:03;9.15;;;2.80;;
74415;SDS011;62850;42.428;25.618;2023-05-10T14:45:28;6.03;;;2.72;;
74415;SDS011;62850;42.428;25.618;2023-05-10T14:47:54;6.65;;;2.95;;
74415;SDS011;62850;42.428;25.618;2023-05-10T14:50:19;5.50;;;2.63;;
74415;SDS011;62850;42.428;25.618;2023-05-10T14:56:01;4.88;;;3.20;;
74415;SDS011;62850;42.428;25.618;2023-05-10T14:58:26;5.13;;;2.95;;
74415;SDS011;62850;42.428;25.618;2023-05-10T15:00:52;8.23;;;3.65;;
74415;SDS011;62850;42.428;25.618;2023-05-10T15:03:18;6.85;;;3.50;;
74415;SDS011;62850;42.428;25.618;2023-05-10T15:05:43;6.88;;;3.60;;
74415;SDS011;62850;42.428;25.618;2023-05-10T15:08:09;7.78;;;3.35;;
74415;SDS011;62850;42.428;25.618;2023-05-10T15:10:34;7.95;;;3.15;;
74415;SDS011;62850;42.428;25.618;2023-05-10T15:13:03;7.20;;;3.13;;
74415;SDS011;62850;42.428;25.618;2023-05-10T15:15:29;5.63;;;3.00;;
74415;SDS011;62850;42.428;25.618;2023-05-10T15:17:54;8.38;;;3.63;;
74415;SDS011;62850;42.428;25.618;2023-05-10T15:20:20;8.25;;;3.28;;
74415;SDS011;62850;42.428;25.618;2023-05-10T15:22:45;7.00;;;3.15;;
74415;SDS011;62850;42.428;25.618;2023-05-10T15:25:11;5.93;;;3.10;;
74415;SDS011;62850;42.428;25.618;2023-05-10T15:27:36;4.93;;;2.90;;